KAP498 KMCO-KHXD
Flight info
| Callsign | KAP498 |
|---|---|
| Flight time | 1h 20m |
| Altitude | 0 |
| Route | VFR |
| Aircraft | P212/L-VGD/C |
Departure
| Time | 2026-05-04 17:56 |
|---|---|
| Airport | Orlando International Airport (KMCO) |
Arrival
| Time | 2026-05-04 19:16 |
|---|---|
| Airport | Hilton Head Airport (KHXD) |
| Time | Latitude | Longitude | Altitude | Speed | Heading |
|---|---|---|---|---|---|
| 2026-05-04 17:35 | 28.43279 | -81.33143 | 92 ft | 0 kts | 2° |
| 2026-05-04 17:47 | 28.43283 | -81.33142 | 92 ft | 0 kts | 49° |
| 2026-05-04 17:48 | 28.43285 | -81.33136 | 92 ft | 0 kts | 103° |
| 2026-05-04 17:48 | 28.43285 | -81.33112 | 92 ft | 10 kts | 88° |
| 2026-05-04 17:48 | 28.43286 | -81.33066 | 92 ft | 14 kts | 87° |
| 2026-05-04 17:48 | 28.43288 | -81.33026 | 92 ft | 0 kts | 88° |
| 2026-05-04 17:49 | 28.43288 | -81.33012 | 92 ft | 0 kts | 95° |
| 2026-05-04 17:49 | 28.43286 | -81.33000 | 92 ft | 5 kts | 103° |
| 2026-05-04 17:50 | 28.43223 | -81.32922 | 93 ft | 21 kts | 181° |
| 2026-05-04 17:50 | 28.43072 | -81.32939 | 92 ft | 21 kts | 169° |
| 2026-05-04 17:50 | 28.42975 | -81.32924 | 92 ft | 14 kts | 180° |
| 2026-05-04 17:50 | 28.42853 | -81.32919 | 92 ft | 22 kts | 176° |
| 2026-05-04 17:51 | 28.42678 | -81.32915 | 92 ft | 28 kts | 178° |
| 2026-05-04 17:51 | 28.42509 | -81.32917 | 91 ft | 24 kts | 177° |
| 2026-05-04 17:51 | 28.42333 | -81.32916 | 92 ft | 26 kts | 179° |
| 2026-05-04 17:51 | 28.42170 | -81.32918 | 92 ft | 22 kts | 177° |
| 2026-05-04 17:52 | 28.42026 | -81.32912 | 93 ft | 22 kts | 178° |
| 2026-05-04 17:52 | 28.41860 | -81.32913 | 92 ft | 25 kts | 178° |
| 2026-05-04 17:52 | 28.41679 | -81.32908 | 94 ft | 26 kts | 180° |
| 2026-05-04 17:52 | 28.41550 | -81.32907 | 94 ft | 4 kts | 146° |
| 2026-05-04 17:53 | 28.41535 | -81.32881 | 94 ft | 1 kts | 91° |
| 2026-05-04 17:54 | 28.41535 | -81.32860 | 92 ft | 6 kts | 87° |
| 2026-05-04 17:54 | 28.41537 | -81.32800 | 93 ft | 8 kts | 91° |
| 2026-05-04 17:54 | 28.41537 | -81.32738 | 94 ft | 8 kts | 89° |
| 2026-05-04 17:54 | 28.41551 | -81.32681 | 95 ft | 8 kts | 37° |
| 2026-05-04 17:55 | 28.41744 | -81.32660 | 93 ft | 57 kts | 357° |
| 2026-05-04 17:55 | 28.42293 | -81.32664 | 131 ft | 95 kts | 5° |
| 2026-05-04 17:55 | 28.43072 | -81.32663 | 183 ft | 122 kts | 5° |
| 2026-05-04 17:55 | 28.43883 | -81.32727 | 549 ft | 126 kts | 357° |
| 2026-05-04 17:56 | 28.44825 | -81.32788 | 785 ft | 135 kts | 0° |
| 2026-05-04 17:56 | 28.45744 | -81.33018 | 1077 ft | 144 kts | 348° |
| 2026-05-04 17:56 | 28.46750 | -81.33386 | 1414 ft | 153 kts | 347° |
| 2026-05-04 17:56 | 28.47783 | -81.33797 | 1706 ft | 166 kts | 345° |
| 2026-05-04 17:57 | 28.48915 | -81.34244 | 1827 ft | 178 kts | 344° |
| 2026-05-04 17:57 | 28.50087 | -81.34722 | 2057 ft | 178 kts | 343° |
| 2026-05-04 17:57 | 28.51328 | -81.35106 | 1943 ft | 190 kts | 352° |
| 2026-05-04 17:57 | 28.52601 | -81.35409 | 1930 ft | 182 kts | 352° |
| 2026-05-04 17:58 | 28.53802 | -81.35683 | 1932 ft | 174 kts | 353° |
| 2026-05-04 17:58 | 28.54978 | -81.35964 | 1935 ft | 170 kts | 351° |
| 2026-05-04 17:58 | 28.56125 | -81.36229 | 1938 ft | 169 kts | 354° |
| 2026-05-04 17:58 | 28.57281 | -81.36498 | 1932 ft | 172 kts | 352° |
| 2026-05-04 17:59 | 28.58452 | -81.36766 | 1951 ft | 170 kts | 353° |
| 2026-05-04 17:59 | 28.59617 | -81.37031 | 1930 ft | 174 kts | 353° |
| 2026-05-04 17:59 | 28.61979 | -81.37567 | 1943 ft | 173 kts | 352° |
| 2026-05-04 18:00 | 28.63163 | -81.37826 | 1938 ft | 175 kts | 353° |
| 2026-05-04 18:00 | 28.64353 | -81.38096 | 1933 ft | 174 kts | 352° |
| 2026-05-04 18:00 | 28.65561 | -81.38372 | 1931 ft | 176 kts | 353° |
| 2026-05-04 18:00 | 28.66743 | -81.38629 | 1929 ft | 174 kts | 353° |
| 2026-05-04 18:01 | 28.67935 | -81.38877 | 1937 ft | 173 kts | 354° |
| 2026-05-04 18:01 | 28.69123 | -81.39134 | 1934 ft | 174 kts | 353° |
| 2026-05-04 18:01 | 28.70301 | -81.39392 | 1925 ft | 169 kts | 352° |
| 2026-05-04 18:02 | 28.72269 | -81.40681 | 2149 ft | 171 kts | 321° |
| 2026-05-04 18:02 | 28.73100 | -81.41595 | 2454 ft | 162 kts | 318° |
| 2026-05-04 18:02 | 28.73929 | -81.42493 | 2543 ft | 167 kts | 323° |
| 2026-05-04 18:02 | 28.74811 | -81.43341 | 2778 ft | 164 kts | 324° |
| 2026-05-04 18:03 | 28.75711 | -81.44159 | 2909 ft | 166 kts | 326° |
| 2026-05-04 18:03 | 28.76718 | -81.44755 | 3044 ft | 164 kts | 345° |
| 2026-05-04 18:03 | 28.77813 | -81.45058 | 3276 ft | 159 kts | 354° |
| 2026-05-04 18:03 | 28.78920 | -81.45129 | 3459 ft | 161 kts | 5° |
| 2026-05-04 18:04 | 28.80039 | -81.45026 | 3643 ft | 159 kts | 11° |
| 2026-05-04 18:04 | 28.81106 | -81.44795 | 3884 ft | 159 kts | 17° |
| 2026-05-04 18:04 | 28.83300 | -81.44279 | 4301 ft | 160 kts | 12° |
| 2026-05-04 18:05 | 28.84387 | -81.44041 | 4496 ft | 158 kts | 20° |
| 2026-05-04 18:05 | 28.85449 | -81.43652 | 4535 ft | 168 kts | 14° |
| 2026-05-04 18:05 | 28.86626 | -81.43503 | 4642 ft | 171 kts | 7° |
| 2026-05-04 18:05 | 28.87826 | -81.43391 | 4711 ft | 173 kts | 8° |
| 2026-05-04 18:06 | 28.89833 | -81.43189 | 4849 ft | 174 kts | 8° |
| 2026-05-04 18:06 | 28.91441 | -81.43020 | 5035 ft | 175 kts | 8° |
| 2026-05-04 18:06 | 28.92660 | -81.42881 | 5114 ft | 175 kts | 8° |
| 2026-05-04 18:07 | 28.93867 | -81.42742 | 5197 ft | 176 kts | 8° |
| 2026-05-04 18:07 | 28.94676 | -81.42648 | 5259 ft | 176 kts | 8° |
| 2026-05-04 18:07 | 28.95902 | -81.42502 | 5376 ft | 176 kts | 8° |
| 2026-05-04 18:07 | 28.97524 | -81.42304 | 5504 ft | 178 kts | 8° |
| 2026-05-04 18:08 | 28.98362 | -81.42196 | 5506 ft | 180 kts | 8° |
| 2026-05-04 18:08 | 28.99623 | -81.42033 | 5515 ft | 182 kts | 8° |
| 2026-05-04 18:08 | 29.00878 | -81.41866 | 5517 ft | 184 kts | 8° |
| 2026-05-04 18:08 | 29.02162 | -81.41693 | 5522 ft | 185 kts | 8° |
| 2026-05-04 18:09 | 29.04730 | -81.41349 | 5522 ft | 186 kts | 8° |
| 2026-05-04 18:09 | 29.07290 | -81.41007 | 5523 ft | 186 kts | 8° |
| 2026-05-04 18:10 | 29.08578 | -81.40836 | 5523 ft | 186 kts | 8° |
| 2026-05-04 18:10 | 29.09863 | -81.40663 | 5515 ft | 185 kts | 8° |
| 2026-05-04 18:10 | 29.11130 | -81.40494 | 5514 ft | 185 kts | 8° |
| 2026-05-04 18:10 | 29.12418 | -81.40323 | 5510 ft | 186 kts | 8° |
| 2026-05-04 18:11 | 29.13709 | -81.40150 | 5511 ft | 186 kts | 8° |
| 2026-05-04 18:11 | 29.14990 | -81.39977 | 5510 ft | 186 kts | 8° |
| 2026-05-04 18:11 | 29.16278 | -81.39803 | 5508 ft | 185 kts | 8° |
| 2026-05-04 18:11 | 29.17569 | -81.39638 | 5510 ft | 187 kts | 7° |
| 2026-05-04 18:12 | 29.18841 | -81.39471 | 5510 ft | 186 kts | 8° |
| 2026-05-04 18:12 | 29.20124 | -81.39298 | 5509 ft | 186 kts | 8° |
| 2026-05-04 18:12 | 29.21412 | -81.39123 | 5507 ft | 186 kts | 8° |
| 2026-05-04 18:12 | 29.22706 | -81.38949 | 5506 ft | 187 kts | 8° |
| 2026-05-04 18:13 | 29.23991 | -81.38776 | 5510 ft | 187 kts | 8° |
| 2026-05-04 18:13 | 29.25287 | -81.38601 | 5515 ft | 187 kts | 8° |
| 2026-05-04 18:13 | 29.27868 | -81.38250 | 5509 ft | 188 kts | 8° |
| 2026-05-04 18:14 | 29.29168 | -81.38071 | 5518 ft | 187 kts | 8° |
| 2026-05-04 18:14 | 29.30459 | -81.37893 | 5522 ft | 187 kts | 8° |
| 2026-05-04 18:14 | 29.31762 | -81.37715 | 5518 ft | 187 kts | 8° |
| 2026-05-04 18:15 | 29.34359 | -81.37356 | 5518 ft | 187 kts | 8° |
| 2026-05-04 18:15 | 29.36927 | -81.37002 | 5524 ft | 186 kts | 8° |
| 2026-05-04 18:15 | 29.38217 | -81.36828 | 5521 ft | 187 kts | 8° |
| 2026-05-04 18:16 | 29.38947 | -81.36727 | 5522 ft | 186 kts | 8° |
| 2026-05-04 18:16 | 29.40220 | -81.36550 | 5520 ft | 186 kts | 8° |
| 2026-05-04 18:16 | 29.41519 | -81.36368 | 5534 ft | 187 kts | 8° |
| 2026-05-04 18:17 | 29.44091 | -81.36011 | 5531 ft | 187 kts | 8° |
| 2026-05-04 18:17 | 29.45390 | -81.35826 | 5532 ft | 188 kts | 8° |
| 2026-05-04 18:17 | 29.47975 | -81.35467 | 5535 ft | 189 kts | 7° |
| 2026-05-04 18:18 | 29.49284 | -81.35283 | 5535 ft | 189 kts | 8° |
| 2026-05-04 18:18 | 29.50593 | -81.35098 | 5530 ft | 188 kts | 8° |
| 2026-05-04 18:18 | 29.51893 | -81.34916 | 5525 ft | 187 kts | 8° |
| 2026-05-04 18:18 | 29.53186 | -81.34732 | 5525 ft | 186 kts | 8° |
| 2026-05-04 18:19 | 29.55764 | -81.34368 | 5527 ft | 187 kts | 8° |
| 2026-05-04 18:19 | 29.57047 | -81.34188 | 5526 ft | 187 kts | 8° |
| 2026-05-04 18:19 | 29.58345 | -81.34005 | 5525 ft | 186 kts | 8° |
| 2026-05-04 18:20 | 29.59618 | -81.33824 | 5527 ft | 186 kts | 8° |
| 2026-05-04 18:20 | 29.60911 | -81.33641 | 5524 ft | 186 kts | 8° |
| 2026-05-04 18:20 | 29.62202 | -81.33457 | 5525 ft | 187 kts | 8° |
| 2026-05-04 18:20 | 29.63494 | -81.33274 | 5526 ft | 186 kts | 8° |
| 2026-05-04 18:21 | 29.64779 | -81.33089 | 5528 ft | 186 kts | 8° |
| 2026-05-04 18:21 | 29.66068 | -81.32902 | 5518 ft | 188 kts | 8° |
| 2026-05-04 18:21 | 29.67374 | -81.32717 | 5516 ft | 190 kts | 6° |
| 2026-05-04 18:21 | 29.68690 | -81.32531 | 5516 ft | 189 kts | 8° |
| 2026-05-04 18:22 | 29.69993 | -81.32343 | 5515 ft | 188 kts | 8° |
| 2026-05-04 18:22 | 29.71271 | -81.32160 | 5513 ft | 187 kts | 8° |
| 2026-05-04 18:22 | 29.72563 | -81.31976 | 5513 ft | 186 kts | 8° |
| 2026-05-04 18:22 | 29.73855 | -81.31793 | 5512 ft | 186 kts | 8° |
| 2026-05-04 18:23 | 29.75146 | -81.31609 | 5525 ft | 187 kts | 8° |
| 2026-05-04 18:23 | 29.76439 | -81.31421 | 5519 ft | 189 kts | 8° |
| 2026-05-04 18:23 | 29.77747 | -81.31233 | 5524 ft | 188 kts | 8° |
| 2026-05-04 18:23 | 29.79033 | -81.31054 | 5525 ft | 188 kts | 8° |
| 2026-05-04 18:24 | 29.80338 | -81.30868 | 5525 ft | 188 kts | 8° |
| 2026-05-04 18:24 | 29.81641 | -81.30679 | 5522 ft | 188 kts | 8° |
| 2026-05-04 18:24 | 29.82928 | -81.30494 | 5525 ft | 187 kts | 8° |
| 2026-05-04 18:24 | 29.84226 | -81.30310 | 5525 ft | 187 kts | 8° |
| 2026-05-04 18:25 | 29.85519 | -81.30122 | 5527 ft | 187 kts | 8° |
| 2026-05-04 18:25 | 29.86798 | -81.29940 | 5526 ft | 186 kts | 8° |
| 2026-05-04 18:25 | 29.88089 | -81.29760 | 5528 ft | 187 kts | 8° |
| 2026-05-04 18:25 | 29.89384 | -81.29576 | 5528 ft | 187 kts | 8° |
| 2026-05-04 18:26 | 29.90682 | -81.29389 | 5527 ft | 187 kts | 8° |
| 2026-05-04 18:26 | 29.91970 | -81.29206 | 5536 ft | 189 kts | 8° |
| 2026-05-04 18:26 | 29.93288 | -81.29019 | 5527 ft | 189 kts | 8° |
| 2026-05-04 18:26 | 29.94571 | -81.28837 | 5529 ft | 187 kts | 8° |
| 2026-05-04 18:27 | 29.95872 | -81.28652 | 5527 ft | 187 kts | 8° |
| 2026-05-04 18:27 | 29.97163 | -81.28468 | 5526 ft | 186 kts | 8° |
| 2026-05-04 18:27 | 29.98453 | -81.28286 | 5526 ft | 186 kts | 8° |
| 2026-05-04 18:27 | 29.99748 | -81.28104 | 5527 ft | 186 kts | 8° |
| 2026-05-04 18:28 | 30.01026 | -81.27924 | 5526 ft | 186 kts | 8° |
| 2026-05-04 18:28 | 30.02313 | -81.27742 | 5527 ft | 186 kts | 8° |
| 2026-05-04 18:28 | 30.03610 | -81.27560 | 5524 ft | 187 kts | 7° |
| 2026-05-04 18:28 | 30.04894 | -81.27418 | 5526 ft | 187 kts | 6° |
| 2026-05-04 18:29 | 30.06196 | -81.27290 | 5526 ft | 186 kts | 6° |
| 2026-05-04 18:29 | 30.07492 | -81.27160 | 5524 ft | 187 kts | 6° |
| 2026-05-04 18:29 | 30.08780 | -81.27031 | 5524 ft | 187 kts | 6° |
| 2026-05-04 18:29 | 30.10080 | -81.26900 | 5525 ft | 187 kts | 6° |
| 2026-05-04 18:30 | 30.12663 | -81.26640 | 5522 ft | 187 kts | 6° |
| 2026-05-04 18:30 | 30.13965 | -81.26511 | 5522 ft | 187 kts | 6° |
| 2026-05-04 18:30 | 30.15260 | -81.26381 | 5519 ft | 187 kts | 6° |
| 2026-05-04 18:31 | 30.16544 | -81.26253 | 5521 ft | 187 kts | 6° |
| 2026-05-04 18:31 | 30.17846 | -81.26124 | 5519 ft | 187 kts | 6° |
| 2026-05-04 18:31 | 30.19152 | -81.25992 | 5516 ft | 187 kts | 6° |
| 2026-05-04 18:31 | 30.20451 | -81.25861 | 5520 ft | 187 kts | 6° |
| 2026-05-04 18:32 | 30.21744 | -81.25731 | 5521 ft | 187 kts | 6° |
| 2026-05-04 18:32 | 30.23045 | -81.25602 | 5521 ft | 187 kts | 6° |
| 2026-05-04 18:32 | 30.24345 | -81.25472 | 5522 ft | 187 kts | 6° |
| 2026-05-04 18:32 | 30.25647 | -81.25341 | 5522 ft | 188 kts | 6° |
| 2026-05-04 18:33 | 30.26937 | -81.25211 | 5520 ft | 188 kts | 6° |
| 2026-05-04 18:33 | 30.28245 | -81.25079 | 5524 ft | 188 kts | 6° |
| 2026-05-04 18:33 | 30.29552 | -81.24949 | 5523 ft | 188 kts | 6° |
| 2026-05-04 18:33 | 30.30843 | -81.24818 | 5527 ft | 188 kts | 6° |
| 2026-05-04 18:34 | 30.32152 | -81.24685 | 5524 ft | 188 kts | 6° |
| 2026-05-04 18:34 | 30.33460 | -81.24553 | 5525 ft | 188 kts | 6° |
| 2026-05-04 18:34 | 30.34756 | -81.24423 | 5526 ft | 188 kts | 6° |
| 2026-05-04 18:34 | 30.36071 | -81.24292 | 5526 ft | 188 kts | 6° |
| 2026-05-04 18:35 | 30.37381 | -81.24160 | 5526 ft | 189 kts | 6° |
| 2026-05-04 18:35 | 30.38679 | -81.24029 | 5528 ft | 188 kts | 6° |
| 2026-05-04 18:35 | 30.39988 | -81.23897 | 5523 ft | 188 kts | 6° |
| 2026-05-04 18:35 | 30.41300 | -81.23763 | 5526 ft | 188 kts | 6° |
| 2026-05-04 18:36 | 30.42601 | -81.23632 | 5526 ft | 188 kts | 6° |
| 2026-05-04 18:36 | 30.43916 | -81.23498 | 5526 ft | 189 kts | 6° |
| 2026-05-04 18:36 | 30.45212 | -81.23364 | 5524 ft | 189 kts | 6° |
| 2026-05-04 18:36 | 30.46526 | -81.23227 | 5526 ft | 189 kts | 6° |
| 2026-05-04 18:37 | 30.47839 | -81.23093 | 5526 ft | 189 kts | 6° |
| 2026-05-04 18:37 | 30.49155 | -81.22958 | 5526 ft | 189 kts | 6° |
| 2026-05-04 18:37 | 30.50448 | -81.22823 | 5524 ft | 189 kts | 6° |
| 2026-05-04 18:37 | 30.51764 | -81.22686 | 5526 ft | 189 kts | 6° |
| 2026-05-04 18:38 | 30.53080 | -81.22551 | 5533 ft | 189 kts | 6° |
| 2026-05-04 18:38 | 30.54379 | -81.22417 | 5531 ft | 189 kts | 6° |
| 2026-05-04 18:38 | 30.55697 | -81.22279 | 5531 ft | 189 kts | 6° |
| 2026-05-04 18:38 | 30.56995 | -81.22142 | 5531 ft | 189 kts | 6° |
| 2026-05-04 18:39 | 30.58315 | -81.22004 | 5534 ft | 189 kts | 6° |
| 2026-05-04 18:39 | 30.59184 | -81.21914 | 5532 ft | 189 kts | 6° |
| 2026-05-04 18:39 | 30.60501 | -81.21776 | 5532 ft | 189 kts | 6° |
| 2026-05-04 18:39 | 30.62248 | -81.21593 | 5532 ft | 189 kts | 6° |
| 2026-05-04 18:40 | 30.63136 | -81.21499 | 5530 ft | 189 kts | 6° |
| 2026-05-04 18:40 | 30.64438 | -81.21364 | 5530 ft | 190 kts | 6° |
| 2026-05-04 18:40 | 30.65761 | -81.21225 | 5534 ft | 190 kts | 6° |
| 2026-05-04 18:40 | 30.67080 | -81.21087 | 5532 ft | 190 kts | 6° |
| 2026-05-04 18:41 | 30.68394 | -81.20949 | 5532 ft | 190 kts | 6° |
| 2026-05-04 18:41 | 30.69693 | -81.20813 | 5532 ft | 190 kts | 6° |
| 2026-05-04 18:41 | 30.71014 | -81.20674 | 5533 ft | 190 kts | 6° |
| 2026-05-04 18:41 | 30.72334 | -81.20534 | 5531 ft | 190 kts | 6° |
| 2026-05-04 18:42 | 30.73646 | -81.20394 | 5528 ft | 189 kts | 6° |
| 2026-05-04 18:42 | 30.74964 | -81.20255 | 5529 ft | 189 kts | 6° |
| 2026-05-04 18:42 | 30.76266 | -81.20119 | 5527 ft | 189 kts | 6° |
| 2026-05-04 18:42 | 30.77580 | -81.19979 | 5528 ft | 189 kts | 6° |
| 2026-05-04 18:43 | 30.78901 | -81.19838 | 5527 ft | 189 kts | 6° |
| 2026-05-04 18:43 | 30.80199 | -81.19701 | 5527 ft | 189 kts | 6° |
| 2026-05-04 18:43 | 30.81514 | -81.19561 | 5526 ft | 189 kts | 6° |
| 2026-05-04 18:43 | 30.82832 | -81.19421 | 5525 ft | 189 kts | 6° |
| 2026-05-04 18:44 | 30.84129 | -81.19284 | 5525 ft | 189 kts | 6° |
| 2026-05-04 18:44 | 30.85001 | -81.19192 | 5525 ft | 189 kts | 6° |
| 2026-05-04 18:44 | 30.86730 | -81.19007 | 5525 ft | 189 kts | 6° |
| 2026-05-04 18:44 | 30.88062 | -81.18864 | 5523 ft | 189 kts | 6° |
| 2026-05-04 18:45 | 30.89357 | -81.18726 | 5521 ft | 188 kts | 6° |
| 2026-05-04 18:45 | 30.90665 | -81.18588 | 5521 ft | 188 kts | 6° |
| 2026-05-04 18:45 | 30.91978 | -81.18447 | 5524 ft | 188 kts | 6° |
| 2026-05-04 18:45 | 30.93273 | -81.18308 | 5525 ft | 188 kts | 6° |
| 2026-05-04 18:46 | 30.94578 | -81.18169 | 5522 ft | 188 kts | 6° |
| 2026-05-04 18:46 | 30.95889 | -81.18028 | 5523 ft | 188 kts | 6° |
| 2026-05-04 18:46 | 30.97179 | -81.17889 | 5523 ft | 188 kts | 6° |
| 2026-05-04 18:46 | 30.98487 | -81.17750 | 5522 ft | 188 kts | 6° |
| 2026-05-04 18:47 | 30.99793 | -81.17611 | 5521 ft | 188 kts | 6° |
| 2026-05-04 18:47 | 31.01082 | -81.17473 | 5523 ft | 188 kts | 6° |
| 2026-05-04 18:47 | 31.02387 | -81.17334 | 5523 ft | 187 kts | 6° |
| 2026-05-04 18:47 | 31.03692 | -81.17195 | 5522 ft | 187 kts | 6° |
| 2026-05-04 18:48 | 31.04984 | -81.17058 | 5525 ft | 187 kts | 6° |
| 2026-05-04 18:48 | 31.06284 | -81.16920 | 5525 ft | 187 kts | 6° |
| 2026-05-04 18:48 | 31.07587 | -81.16782 | 5523 ft | 187 kts | 6° |
| 2026-05-04 18:48 | 31.08873 | -81.16647 | 5523 ft | 187 kts | 6° |
| 2026-05-04 18:49 | 31.10172 | -81.16511 | 5524 ft | 187 kts | 6° |
| 2026-05-04 18:49 | 31.11468 | -81.16376 | 5524 ft | 186 kts | 6° |
| 2026-05-04 18:49 | 31.12748 | -81.16242 | 5524 ft | 186 kts | 6° |
| 2026-05-04 18:49 | 31.14055 | -81.16106 | 5523 ft | 186 kts | 6° |
| 2026-05-04 18:50 | 31.15336 | -81.15974 | 5525 ft | 186 kts | 6° |
| 2026-05-04 18:50 | 31.16628 | -81.15842 | 5523 ft | 186 kts | 6° |
| 2026-05-04 18:50 | 31.17927 | -81.15709 | 5527 ft | 186 kts | 6° |
| 2026-05-04 18:50 | 31.19195 | -81.15580 | 5524 ft | 185 kts | 6° |
| 2026-05-04 18:51 | 31.20483 | -81.15452 | 5525 ft | 185 kts | 5° |
| 2026-05-04 18:51 | 31.21771 | -81.15322 | 5524 ft | 185 kts | 6° |
| 2026-05-04 18:51 | 31.23060 | -81.15193 | 5522 ft | 185 kts | 5° |
| 2026-05-04 18:51 | 31.24330 | -81.15066 | 5520 ft | 185 kts | 6° |
| 2026-05-04 18:52 | 31.25614 | -81.14936 | 5522 ft | 185 kts | 6° |
| 2026-05-04 18:52 | 31.26902 | -81.14807 | 5520 ft | 185 kts | 6° |
| 2026-05-04 18:52 | 31.28186 | -81.14680 | 5521 ft | 184 kts | 5° |
| 2026-05-04 18:52 | 31.29450 | -81.14555 | 5519 ft | 184 kts | 6° |
| 2026-05-04 18:53 | 31.30736 | -81.14427 | 5520 ft | 184 kts | 5° |
| 2026-05-04 18:53 | 31.32010 | -81.14298 | 5517 ft | 184 kts | 6° |
| 2026-05-04 18:53 | 31.33292 | -81.14168 | 5517 ft | 185 kts | 6° |
| 2026-05-04 18:53 | 31.34576 | -81.14037 | 5516 ft | 184 kts | 6° |
| 2026-05-04 18:54 | 31.35857 | -81.13906 | 5519 ft | 184 kts | 6° |
| 2026-05-04 18:54 | 31.37122 | -81.13776 | 5518 ft | 184 kts | 6° |
| 2026-05-04 18:54 | 31.38405 | -81.13643 | 5518 ft | 184 kts | 6° |
| 2026-05-04 18:54 | 31.39688 | -81.13510 | 5515 ft | 184 kts | 6° |
| 2026-05-04 18:55 | 31.40967 | -81.13378 | 5516 ft | 184 kts | 6° |
| 2026-05-04 18:55 | 31.43516 | -81.13111 | 5514 ft | 184 kts | 6° |
| 2026-05-04 18:55 | 31.44794 | -81.12976 | 5510 ft | 184 kts | 6° |
| 2026-05-04 18:56 | 31.46060 | -81.12841 | 5508 ft | 184 kts | 6° |
| 2026-05-04 18:56 | 31.47337 | -81.12705 | 5508 ft | 184 kts | 6° |
| 2026-05-04 18:56 | 31.48617 | -81.12569 | 5509 ft | 184 kts | 5° |
| 2026-05-04 18:56 | 31.49896 | -81.12424 | 5507 ft | 184 kts | 7° |
| 2026-05-04 18:57 | 31.51155 | -81.12248 | 5506 ft | 184 kts | 7° |
| 2026-05-04 18:57 | 31.52432 | -81.12060 | 5506 ft | 184 kts | 7° |
| 2026-05-04 18:57 | 31.53701 | -81.11869 | 5508 ft | 184 kts | 7° |
| 2026-05-04 18:57 | 31.54957 | -81.11680 | 5509 ft | 184 kts | 8° |
| 2026-05-04 18:58 | 31.56228 | -81.11491 | 5508 ft | 184 kts | 7° |
| 2026-05-04 18:58 | 31.57504 | -81.11301 | 5505 ft | 184 kts | 7° |
| 2026-05-04 18:58 | 31.58760 | -81.11114 | 5506 ft | 184 kts | 7° |
| 2026-05-04 18:58 | 31.60033 | -81.10925 | 5506 ft | 184 kts | 7° |
| 2026-05-04 18:59 | 31.61306 | -81.10735 | 5504 ft | 183 kts | 8° |
| 2026-05-04 18:59 | 31.62552 | -81.10406 | 5501 ft | 183 kts | 17° |
| 2026-05-04 18:59 | 31.63759 | -81.09966 | 5501 ft | 183 kts | 18° |
| 2026-05-04 18:59 | 31.64982 | -81.09515 | 5504 ft | 184 kts | 18° |
| 2026-05-04 19:00 | 31.66210 | -81.09062 | 5502 ft | 184 kts | 17° |
| 2026-05-04 19:00 | 31.67421 | -81.08614 | 5503 ft | 184 kts | 18° |
| 2026-05-04 19:00 | 31.68641 | -81.08161 | 5499 ft | 183 kts | 18° |
| 2026-05-04 19:00 | 31.69867 | -81.07708 | 5500 ft | 184 kts | 18° |
| 2026-05-04 19:01 | 31.71087 | -81.07256 | 5499 ft | 183 kts | 18° |
| 2026-05-04 19:01 | 31.72296 | -81.06803 | 5497 ft | 184 kts | 20° |
| 2026-05-04 19:01 | 31.73403 | -81.06061 | 5494 ft | 182 kts | 34° |
| 2026-05-04 19:01 | 31.74424 | -81.05211 | 5488 ft | 177 kts | 35° |
| 2026-05-04 19:02 | 31.75412 | -81.04378 | 5483 ft | 175 kts | 35° |
| 2026-05-04 19:02 | 31.76405 | -81.03541 | 5481 ft | 174 kts | 35° |
| 2026-05-04 19:02 | 31.77387 | -81.02713 | 5483 ft | 173 kts | 35° |
| 2026-05-04 19:02 | 31.78362 | -81.01892 | 5485 ft | 173 kts | 35° |
| 2026-05-04 19:03 | 31.79346 | -81.01063 | 5484 ft | 173 kts | 36° |
| 2026-05-04 19:03 | 31.80327 | -81.00238 | 5484 ft | 173 kts | 35° |
| 2026-05-04 19:03 | 31.81305 | -80.99415 | 5482 ft | 173 kts | 35° |
| 2026-05-04 19:03 | 31.82287 | -80.98588 | 5484 ft | 173 kts | 36° |
| 2026-05-04 19:04 | 31.83270 | -80.97721 | 5314 ft | 181 kts | 37° |
| 2026-05-04 19:04 | 31.84267 | -80.96829 | 5187 ft | 182 kts | 37° |
| 2026-05-04 19:04 | 31.85285 | -80.95920 | 5066 ft | 183 kts | 37° |
| 2026-05-04 19:04 | 31.86292 | -80.95023 | 4946 ft | 183 kts | 37° |
| 2026-05-04 19:05 | 31.87317 | -80.94115 | 4819 ft | 183 kts | 37° |
| 2026-05-04 19:05 | 31.88331 | -80.93222 | 4697 ft | 183 kts | 37° |
| 2026-05-04 19:05 | 31.89357 | -80.92325 | 4571 ft | 183 kts | 37° |
| 2026-05-04 19:05 | 31.90392 | -80.91428 | 4442 ft | 184 kts | 37° |
| 2026-05-04 19:06 | 31.91057 | -80.90854 | 4360 ft | 184 kts | 37° |
| 2026-05-04 19:06 | 31.92098 | -80.89963 | 4232 ft | 184 kts | 37° |
| 2026-05-04 19:06 | 31.93125 | -80.89088 | 4106 ft | 184 kts | 37° |
| 2026-05-04 19:07 | 31.94167 | -80.88205 | 3982 ft | 184 kts | 37° |
| 2026-05-04 19:07 | 31.95213 | -80.87326 | 3858 ft | 184 kts | 37° |
| 2026-05-04 19:07 | 31.96250 | -80.86457 | 3733 ft | 184 kts | 37° |
| 2026-05-04 19:07 | 31.97297 | -80.85578 | 3609 ft | 184 kts | 37° |
| 2026-05-04 19:08 | 31.98352 | -80.84700 | 3490 ft | 185 kts | 37° |
| 2026-05-04 19:08 | 31.99397 | -80.83838 | 3363 ft | 185 kts | 37° |
| 2026-05-04 19:08 | 32.00452 | -80.82968 | 3240 ft | 185 kts | 37° |
| 2026-05-04 19:08 | 32.01510 | -80.82096 | 3113 ft | 185 kts | 37° |
| 2026-05-04 19:09 | 32.02555 | -80.81234 | 2995 ft | 184 kts | 37° |
| 2026-05-04 19:09 | 32.03596 | -80.80375 | 2923 ft | 182 kts | 37° |
| 2026-05-04 19:09 | 32.04639 | -80.79513 | 2825 ft | 183 kts | 37° |
| 2026-05-04 19:09 | 32.05685 | -80.78646 | 2725 ft | 183 kts | 37° |
| 2026-05-04 19:10 | 32.06712 | -80.77795 | 2626 ft | 183 kts | 38° |
| 2026-05-04 19:10 | 32.07758 | -80.76932 | 2528 ft | 183 kts | 37° |
| 2026-05-04 19:10 | 32.08839 | -80.76126 | 2358 ft | 182 kts | 31° |
| 2026-05-04 19:10 | 32.09927 | -80.75466 | 2098 ft | 170 kts | 28° |
| 2026-05-04 19:11 | 32.10629 | -80.75072 | 1958 ft | 165 kts | 27° |
| 2026-05-04 19:11 | 32.11683 | -80.74504 | 1545 ft | 170 kts | 27° |
| 2026-05-04 19:11 | 32.13016 | -80.73769 | 1356 ft | 156 kts | 29° |
| 2026-05-04 19:11 | 32.13657 | -80.73378 | 1203 ft | 155 kts | 32° |
| 2026-05-04 19:12 | 32.14581 | -80.72736 | 977 ft | 152 kts | 34° |
| 2026-05-04 19:12 | 32.16336 | -80.71247 | 1032 ft | 160 kts | 39° |
| 2026-05-04 19:12 | 32.17201 | -80.70413 | 1113 ft | 165 kts | 44° |
| 2026-05-04 19:13 | 32.18140 | -80.69595 | 1116 ft | 165 kts | 36° |
| 2026-05-04 19:13 | 32.19125 | -80.68857 | 1010 ft | 170 kts | 34° |
| 2026-05-04 19:13 | 32.20084 | -80.68150 | 1007 ft | 149 kts | 34° |
| 2026-05-04 19:13 | 32.21004 | -80.67594 | 943 ft | 149 kts | 23° |
| 2026-05-04 19:14 | 32.21964 | -80.67193 | 996 ft | 141 kts | 20° |
| 2026-05-04 19:14 | 32.22884 | -80.66827 | 1050 ft | 142 kts | 22° |
| 2026-05-04 19:14 | 32.23785 | -80.66420 | 936 ft | 131 kts | 23° |
| 2026-05-04 19:14 | 32.24559 | -80.66221 | 906 ft | 114 kts | 342° |
| 2026-05-04 19:15 | 32.25060 | -80.66912 | 710 ft | 114 kts | 280° |
| 2026-05-04 19:15 | 32.25214 | -80.67809 | 579 ft | 110 kts | 274° |
| 2026-05-04 19:15 | 32.24928 | -80.68490 | 492 ft | 87 kts | 205° |
| 2026-05-04 19:15 | 32.24330 | -80.68702 | 390 ft | 93 kts | 192° |
| 2026-05-04 19:16 | 32.23762 | -80.68998 | 221 ft | 86 kts | 205° |
| 2026-05-04 19:16 | 32.23196 | -80.69314 | 92 ft | 92 kts | 204° |
| 2026-05-04 19:16 | 32.22673 | -80.69617 | 23 ft | 73 kts | 204° |
| 2026-05-04 19:16 | 32.22354 | -80.69797 | 22 ft | 14 kts | 201° |
| 2026-05-04 19:17 | 32.22316 | -80.69754 | 21 ft | 1 kts | 117° |
| 2026-05-04 19:17 | 32.22312 | -80.69744 | 21 ft | 0 kts | 117° |
| 2026-05-04 19:17 | 32.22310 | -80.69737 | 20 ft | 6 kts | 99° |
| 2026-05-04 19:17 | 32.22315 | -80.69671 | 21 ft | 8 kts | 124° |
| 2026-05-04 19:18 | 32.22295 | -80.69658 | 21 ft | 0 kts | 212° |